Time;durP1;ratioP1;P1;durP2;ratioP2;P2;SDS_P1;SDS_P2;PMS_P1;PMS_P2;Temp;Humidity;BMP_temperature;BMP_pressure;BME280_temperature;BME280_humidity;BME280_pressure;Samples;Min_cycle;Max_cycle;Signal;HPM_P1;HPM_P2
2021/01/14 00:00:39;;;;;;;32.33;21.83;;;6.60;96.70;;;;;;4833102;29;20459;-74
2021/01/14 00:03:10;;;;;;;30.92;21.05;;;6.60;96.70;;;;;;4835230;29;20137;-74
2021/01/14 00:05:38;;;;;;;30.15;20.52;;;6.60;96.70;;;;;;4835259;29;20108;-74
2021/01/14 00:08:06;;;;;;;29.42;20.73;;;6.50;96.70;;;;;;4843293;29;20056;-74
2021/01/14 00:10:36;;;;;;;28.17;19.65;;;6.60;96.70;;;;;;4834540;29;20049;-75
2021/01/14 00:13:04;;;;;;;29.58;20.02;;;6.70;96.70;;;;;;4835387;29;20057;-74
2021/01/14 00:15:31;;;;;;;25.67;18.95;;;6.60;96.70;;;;;;4830662;29;20679;-74
2021/01/14 00:17:59;;;;;;;29.70;19.63;;;6.60;96.70;;;;;;4833888;29;20300;-74
2021/01/14 00:20:28;;;;;;;26.15;19.35;;;6.70;96.70;;;;;;4834583;29;20106;-74
2021/01/14 00:22:55;;;;;;;28.05;19.38;;;6.80;96.70;;;;;;4847651;29;20064;-74
2021/01/14 00:25:23;;;;;;;24.40;18.55;;;6.80;96.70;;;;;;4832710;29;20049;-74
2021/01/14 00:27:51;;;;;;;25.17;19.05;;;6.80;96.70;;;;;;4850961;29;20046;-74
2021/01/14 00:30:25;;;;;;;25.27;18.30;;;6.70;96.70;;;;;;4831395;29;20700;-74
2021/01/14 00:32:52;;;;;;;25.25;19.05;;;6.60;96.70;;;;;;4836267;29;20046;-74
2021/01/14 00:35:20;;;;;;;23.30;17.45;;;6.70;96.70;;;;;;4843120;29;20045;-73
2021/01/14 00:37:51;;;;;;;25.05;17.55;;;6.70;96.70;;;;;;4833287;29;20053;-74
2021/01/14 00:40:20;;;;;;;28.10;18.88;;;6.70;96.70;;;;;;4835008;29;20041;-74
2021/01/14 00:42:54;;;;;;;25.55;17.50;;;6.70;96.70;;;;;;4847281;29;20050;-74
2021/01/14 00:45:21;;;;;;;23.13;17.52;;;6.70;96.70;;;;;;4832062;29;20125;-74
2021/01/14 00:47:49;;;;;;;23.50;17.55;;;6.70;96.70;;;;;;4834532;29;20175;-74
2021/01/14 00:50:17;;;;;;;25.42;17.50;;;6.80;96.70;;;;;;4828639;29;20458;-74
2021/01/14 00:52:44;;;;;;;23.00;17.00;;;6.80;96.70;;;;;;4836021;29;20448;-75
2021/01/14 00:55:15;;;;;;;24.73;17.75;;;6.80;96.70;;;;;;4834711;29;20045;-74
2021/01/14 00:57:43;;;;;;;21.95;16.08;;;6.80;96.70;;;;;;4846493;29;20536;-74
2021/01/14 01:00:12;;;;;;;24.27;17.70;;;6.80;96.70;;;;;;4834808;29;20049;-75
2021/01/14 01:02:40;;;;;;;25.05;17.55;;;6.90;96.70;;;;;;4832058;29;20069;-74
2021/01/14 01:05:10;;;;;;;25.48;17.75;;;6.90;96.70;;;;;;4833406;29;20058;-74
2021/01/14 01:07:37;;;;;;;24.13;19.27;;;6.90;96.70;;;;;;4833345;29;20557;-74
2021/01/14 01:10:06;;;;;;;24.85;17.40;;;6.90;96.70;;;;;;4837138;29;20048;-74
2021/01/14 01:12:35;;;;;;;26.55;18.15;;;6.90;96.70;;;;;;4832754;29;20061;-74
2021/01/14 01:15:02;;;;;;;24.42;17.23;;;6.90;96.70;;;;;;4830739;29;20054;-74
2021/01/14 01:17:31;;;;;;;23.42;18.17;;;6.90;96.70;;;;;;4834459;29;20042;-74
2021/01/14 01:19:58;;;;;;;24.58;16.13;;;6.80;96.70;;;;;;4833009;29;20501;-73
2021/01/14 01:22:26;;;;;;;44.17;27.08;;;6.80;96.70;;;;;;4834598;29;20046;-74
2021/01/14 01:24:53;;;;;;;32.75;21.90;;;6.80;96.70;;;;;;4829049;29;20050;-74
2021/01/14 01:27:20;;;;;;;28.45;19.98;;;6.80;96.70;;;;;;4840967;29;20107;-74
2021/01/14 01:29:48;;;;;;;29.70;20.80;;;6.90;96.70;;;;;;4834138;29;20990;-74
2021/01/14 01:32:16;;;;;;;29.08;19.23;;;6.90;96.70;;;;;;4826256;29;20054;-75
2021/01/14 01:34:43;;;;;;;25.83;18.70;;;6.90;96.70;;;;;;4835839;29;20046;-73
2021/01/14 01:37:10;;;;;;;23.67;17.23;;;6.80;96.70;;;;;;4830634;29;20322;-74
2021/01/14 01:39:38;;;;;;;25.20;18.27;;;6.90;96.70;;;;;;4833322;29;20394;-74
2021/01/14 01:42:05;;;;;;;25.23;18.60;;;6.90;96.70;;;;;;4829171;29;20042;-74
2021/01/14 01:44:33;;;;;;;26.75;17.20;;;6.90;96.70;;;;;;4831747;29;20038;-74
2021/01/14 01:47:06;;;;;;;22.80;16.52;;;6.90;96.70;;;;;;4828605;29;20128;-74
2021/01/14 01:49:35;;;;;;;23.02;16.70;;;6.90;96.70;;;;;;4850944;29;20109;-74
2021/01/14 01:52:03;;;;;;;21.33;16.02;;;6.90;96.70;;;;;;4831963;29;20038;-75
2021/01/14 01:54:32;;;;;;;29.15;18.63;;;6.90;96.70;;;;;;4831863;29;20530;-74
2021/01/14 01:57:00;;;;;;;24.95;16.60;;;6.90;96.70;;;;;;4829139;29;20105;-74
2021/01/14 01:59:30;;;;;;;22.85;16.67;;;6.90;96.70;;;;;;4844621;29;20077;-73
2021/01/14 02:01:57;;;;;;;25.30;17.75;;;6.90;96.70;;;;;;4829029;29;20050;-75
2021/01/14 02:04:26;;;;;;;22.20;16.13;;;7.00;96.70;;;;;;4831961;29;20045;-74
2021/01/14 02:07:05;;;;;;;22.95;15.43;;;7.00;96.70;;;;;;4831251;29;20089;-74
2021/01/14 02:09:36;;;;;;;24.08;16.15;;;7.00;96.70;;;;;;4830708;29;20038;-75
2021/01/14 02:12:04;;;;;;;23.98;16.30;;;7.00;96.70;;;;;;4845268;29;20133;-74
2021/01/14 02:14:34;;;;;;;27.05;18.75;;;7.10;96.70;;;;;;4829790;29;20057;-74
2021/01/14 02:17:01;;;;;;;26.13;18.45;;;7.10;96.70;;;;;;4829329;29;20167;-74
2021/01/14 02:19:38;;;;;;;22.20;16.35;;;7.10;96.70;;;;;;4830946;29;20042;-74
2021/01/14 02:22:13;;;;;;;23.10;16.50;;;7.00;96.70;;;;;;4830810;29;20129;-74
2021/01/14 02:24:49;;;;;;;21.70;16.55;;;7.00;96.70;;;;;;4829429;29;20572;-75
2021/01/14 02:27:18;;;;;;;25.80;17.08;;;7.00;96.70;;;;;;4844144;29;20042;-74
2021/01/14 02:29:46;;;;;;;21.88;15.10;;;7.00;96.70;;;;;;4828457;29;20053;-74
2021/01/14 02:32:16;;;;;;;23.35;16.60;;;7.00;96.70;;;;;;4826021;29;20058;-75
2021/01/14 02:34:43;;;;;;;20.52;15.30;;;7.00;96.70;;;;;;4828370;29;20045;-74
2021/01/14 02:37:12;;;;;;;25.15;16.30;;;7.00;96.70;;;;;;4840679;29;20049;-74
2021/01/14 02:39:39;;;;;;;24.38;16.58;;;7.00;96.70;;;;;;4831389;29;20203;-74
2021/01/14 02:42:07;;;;;;;24.52;17.27;;;7.00;96.70;;;;;;4831602;29;20434;-74
2021/01/14 02:44:35;;;;;;;22.60;15.13;;;7.00;96.70;;;;;;4829036;29;20588;-74
2021/01/14 02:47:04;;;;;;;24.63;16.65;;;7.00;96.70;;;;;;4830530;29;20069;-74
2021/01/14 02:49:37;;;;;;;24.92;16.73;;;6.90;96.70;;;;;;4830163;29;20531;-74
2021/01/14 02:52:06;;;;;;;22.40;16.10;;;7.00;96.70;;;;;;4831454;29;20412;-74
2021/01/14 02:54:34;;;;;;;22.60;16.15;;;7.00;96.70;;;;;;4831683;29;20046;-74
2021/01/14 02:57:01;;;;;;;23.98;16.05;;;7.00;96.70;;;;;;4832367;29;20058;-69
2021/01/14 02:59:29;;;;;;;22.60;15.85;;;7.00;96.70;;;;;;4830127;29;20511;-68
2021/01/14 03:01:57;;;;;;;24.15;16.02;;;7.00;96.70;;;;;;4829937;29;20149;-69
2021/01/14 03:04:24;;;;;;;21.58;16.10;;;7.00;96.70;;;;;;4831469;29;20089;-69
2021/01/14 03:06:51;;;;;;;25.33;15.50;;;7.00;96.70;;;;;;4830255;29;20037;-69
2021/01/14 03:09:19;;;;;;;20.35;15.60;;;7.00;96.70;;;;;;4828907;29;20057;-69
2021/01/14 03:11:46;;;;;;;22.30;14.95;;;7.00;96.70;;;;;;4831804;29;20042;-69
2021/01/14 03:14:14;;;;;;;21.63;16.17;;;7.00;96.70;;;;;;4828429;29;20050;-69
2021/01/14 03:16:41;;;;;;;21.65;14.57;;;7.00;96.70;;;;;;4830669;29;20051;-69
2021/01/14 03:19:09;;;;;;;24.70;16.98;;;7.00;96.70;;;;;;4832292;29;20125;-69
2021/01/14 03:21:37;;;;;;;22.65;16.77;;;7.00;96.70;;;;;;4831370;29;20080;-69
2021/01/14 03:24:05;;;;;;;24.00;15.85;;;7.00;96.70;;;;;;4827679;29;20046;-69
2021/01/14 03:26:35;;;;;;;26.98;17.08;;;7.00;96.70;;;;;;4829698;29;20053;-69
2021/01/14 03:29:03;;;;;;;22.85;16.65;;;7.00;96.70;;;;;;4830096;29;20520;-69
2021/01/14 03:31:30;;;;;;;23.10;15.75;;;7.00;96.70;;;;;;4830032;29;20404;-69
2021/01/14 03:33:57;;;;;;;22.20;16.50;;;6.90;96.70;;;;;;4829418;29;20539;-69
2021/01/14 03:36:32;;;;;;;19.88;14.68;;;7.00;96.70;;;;;;4827889;29;20073;-69
2021/01/14 03:39:00;;;;;;;18.67;14.18;;;7.00;96.70;;;;;;4828394;29;20046;-70
2021/01/14 03:41:27;;;;;;;22.50;15.85;;;7.00;96.70;;;;;;4830354;29;20068;-69
2021/01/14 03:43:54;;;;;;;24.77;15.75;;;7.10;96.70;;;;;;4830235;29;20103;-68
2021/01/14 03:46:21;;;;;;;18.58;14.55;;;7.10;96.70;;;;;;4831837;29;20045;-68
2021/01/14 03:48:49;;;;;;;19.08;14.00;;;7.00;96.70;;;;;;4843091;29;20497;-68
2021/01/14 03:51:18;;;;;;;22.08;15.18;;;7.00;96.70;;;;;;4833087;29;20148;-69
2021/01/14 03:53:47;;;;;;;20.58;14.70;;;7.00;96.70;;;;;;4840002;29;20405;-68
2021/01/14 03:56:14;;;;;;;22.33;15.27;;;6.90;96.70;;;;;;4829441;29;20042;-68
2021/01/14 03:58:42;;;;;;;20.40;15.07;;;6.90;96.70;;;;;;4827542;29;20133;-68
2021/01/14 04:01:09;;;;;;;20.83;14.65;;;6.90;96.70;;;;;;4830545;29;20271;-69
2021/01/14 04:03:39;;;;;;;19.23;14.52;;;6.90;96.70;;;;;;4827307;29;20057;-68
2021/01/14 04:06:07;;;;;;;19.73;14.93;;;6.90;96.70;;;;;;4842242;29;20058;-69
2021/01/14 04:08:34;;;;;;;20.75;15.90;;;6.90;96.70;;;;;;4828589;29;20263;-68
2021/01/14 04:11:03;;;;;;;21.00;14.75;;;6.90;96.70;;;;;;4843582;29;20423;-69
2021/01/14 04:13:30;;;;;;;20.05;14.25;;;7.00;96.70;;;;;;4845119;29;20095;-69
2021/01/14 04:15:58;;;;;;;19.33;14.68;;;7.00;96.70;;;;;;4831237;29;21650;-68
2021/01/14 04:18:25;;;;;;;22.83;14.45;;;7.00;96.70;;;;;;4832220;29;20053;-68
2021/01/14 04:20:52;;;;;;;18.70;13.98;;;7.00;96.70;;;;;;4833921;29;20038;-69
2021/01/14 04:23:19;;;;;;;19.67;15.35;;;7.00;96.70;;;;;;4833164;29;20125;-68
2021/01/14 04:25:47;;;;;;;20.17;14.38;;;7.00;96.70;;;;;;4831436;29;20377;-68
2021/01/14 04:28:16;;;;;;;20.55;15.18;;;7.00;96.70;;;;;;4848342;29;20137;-69
2021/01/14 04:30:43;;;;;;;17.85;14.13;;;7.00;96.70;;;;;;4832696;29;20349;-69
2021/01/14 04:33:11;;;;;;;20.73;14.60;;;6.90;96.70;;;;;;4833537;29;20041;-68
2021/01/14 04:35:44;;;;;;;16.38;13.80;;;6.90;96.70;;;;;;4832158;29;20038;-68
2021/01/14 04:38:11;;;;;;;22.55;13.85;;;6.90;96.70;;;;;;4828005;29;20077;-68
2021/01/14 04:40:38;;;;;;;20.42;13.73;;;6.90;96.70;;;;;;4833438;29;20037;-69
2021/01/14 04:43:07;;;;;;;19.30;13.82;;;7.00;96.70;;;;;;4832116;29;20417;-68
2021/01/14 04:45:35;;;;;;;18.73;15.00;;;6.90;96.70;;;;;;4831299;29;20054;-69
2021/01/14 04:48:03;;;;;;;18.15;14.05;;;6.90;96.70;;;;;;4832297;29;20050;-69
2021/01/14 04:50:30;;;;;;;20.48;14.45;;;6.80;96.70;;;;;;4830258;29;20125;-69
2021/01/14 04:53:00;;;;;;;18.38;14.05;;;6.90;96.70;;;;;;4833751;29;20042;-69
2021/01/14 04:55:29;;;;;;;20.08;14.55;;;6.90;96.70;;;;;;4826353;29;20160;-69
2021/01/14 04:57:59;;;;;;;18.13;13.50;;;7.00;96.70;;;;;;4835541;29;20048;-68
2021/01/14 05:00:29;;;;;;;21.70;14.52;;;7.00;96.70;;;;;;4845782;29;20042;-68
2021/01/14 05:03:04;;;;;;;18.98;13.90;;;7.00;96.70;;;;;;4832505;29;20050;-68
2021/01/14 05:05:32;;;;;;;22.00;14.25;;;7.00;96.70;;;;;;4844714;29;20081;-68
2021/01/14 05:08:04;;;;;;;17.60;13.48;;;7.00;96.70;;;;;;4832130;29;20049;-69
2021/01/14 05:10:33;;;;;;;19.48;14.63;;;7.00;96.70;;;;;;4830458;29;20045;-68
2021/01/14 05:13:01;;;;;;;18.45;13.85;;;7.00;96.70;;;;;;4825471;29;20038;-68
2021/01/14 05:15:29;;;;;;;18.73;14.48;;;7.00;96.70;;;;;;4830550;29;20050;-69
2021/01/14 05:17:58;;;;;;;19.45;14.98;;;6.90;96.70;;;;;;4845061;29;20049;-69
2021/01/14 05:20:26;;;;;;;20.00;13.88;;;6.90;96.70;;;;;;4832832;29;20098;-69
2021/01/14 05:22:58;;;;;;;18.05;12.90;;;6.90;96.70;;;;;;4832525;29;20042;-69
2021/01/14 05:25:26;;;;;;;18.45;14.85;;;7.00;96.70;;;;;;4830261;29;20133;-68
2021/01/14 05:27:53;;;;;;;17.15;14.02;;;7.00;96.70;;;;;;4831160;29;20584;-68
2021/01/14 05:30:22;;;;;;;18.23;14.32;;;7.00;96.70;;;;;;4831471;29;20523;-68
2021/01/14 05:32:49;;;;;;;20.83;14.55;;;6.90;96.70;;;;;;4829185;29;20151;-68
2021/01/14 05:35:28;;;;;;;19.15;14.27;;;6.90;96.70;;;;;;4847171;29;20042;-68
2021/01/14 05:38:03;;;;;;;20.33;14.73;;;7.00;96.70;;;;;;4839892;29;20185;-69
2021/01/14 05:40:32;;;;;;;20.75;15.88;;;7.00;96.70;;;;;;4832167;29;20065;-69
2021/01/14 05:43:02;;;;;;;23.80;15.57;;;7.00;96.70;;;;;;4842070;29;20124;-69
2021/01/14 05:45:29;;;;;;;23.50;17.05;;;7.00;96.70;;;;;;4832517;29;20558;-68
2021/01/14 05:48:12;;;;;;;22.42;17.05;;;7.00;96.70;;;;;;4832728;29;20156;-68
2021/01/14 05:50:43;;;;;;;23.33;16.45;;;7.00;96.70;;;;;;4830789;29;20450;-69
2021/01/14 05:53:15;;;;;;;21.15;16.33;;;7.00;96.70;;;;;;4830193;29;20060;-68
2021/01/14 05:55:44;;;;;;;21.65;15.98;;;7.00;96.70;;;;;;4830481;29;20050;-68
2021/01/14 05:58:18;;;;;;;20.65;16.42;;;7.00;96.70;;;;;;4833160;29;20054;-68
2021/01/14 06:00:47;;;;;;;22.45;16.23;;;7.00;96.70;;;;;;4832729;29;20110;-68
2021/01/14 06:03:30;;;;;;;22.45;16.40;;;7.00;96.70;;;;;;4828026;29;20050;-68
2021/01/14 06:05:58;;;;;;;21.77;16.17;;;7.00;96.70;;;;;;4829426;29;20129;-68
2021/01/14 06:08:27;;;;;;;21.15;16.30;;;7.00;96.70;;;;;;4827919;29;20049;-69
2021/01/14 06:10:56;;;;;;;21.92;15.50;;;7.00;96.70;;;;;;4830109;29;20042;-68
2021/01/14 06:13:38;;;;;;;20.40;16.00;;;6.90;96.70;;;;;;4831103;29;20046;-68
2021/01/14 06:16:07;;;;;;;18.23;14.60;;;6.90;96.70;;;;;;4844026;29;20130;-68
2021/01/14 06:18:35;;;;;;;19.25;14.25;;;6.90;96.70;;;;;;4830709;29;20045;-68
2021/01/14 06:21:04;;;;;;;20.42;14.88;;;6.90;96.70;;;;;;4828952;29;20475;-68
2021/01/14 06:23:45;;;;;;;23.05;14.93;;;7.00;96.70;;;;;;4843384;29;20485;-74
2021/01/14 06:26:25;;;;;;;21.52;14.90;;;6.90;96.70;;;;;;4832877;29;20277;-74
2021/01/14 06:28:53;;;;;;;22.15;14.55;;;6.90;96.70;;;;;;4831333;29;20041;-73
2021/01/14 06:31:27;;;;;;;19.63;14.68;;;7.00;96.70;;;;;;4828318;29;20505;-76
2021/01/14 06:33:55;;;;;;;20.35;13.20;;;7.00;96.70;;;;;;4828343;29;20062;-73
2021/01/14 06:36:32;;;;;;;19.65;14.88;;;7.00;96.70;;;;;;4830094;29;20106;-69
2021/01/14 06:39:10;;;;;;;19.30;13.95;;;7.00;96.70;;;;;;4829260;29;20054;-68
2021/01/14 06:41:40;;;;;;;20.10;14.60;;;7.00;96.70;;;;;;4842710;29;20078;-68
2021/01/14 06:44:09;;;;;;;20.33;14.80;;;7.00;96.70;;;;;;4844098;29;20340;-68
2021/01/14 06:46:37;;;;;;;18.50;13.85;;;7.00;96.70;;;;;;4843303;29;20052;-68
2021/01/14 06:49:08;;;;;;;18.98;15.02;;;7.00;96.70;;;;;;4827685;29;20547;-69
2021/01/14 06:51:53;;;;;;;20.50;13.95;;;7.10;96.70;;;;;;4827438;29;20049;-69
2021/01/14 06:54:22;;;;;;;22.10;14.75;;;7.00;96.70;;;;;;4829865;29;20069;-68
2021/01/14 06:56:56;;;;;;;18.70;14.02;;;7.00;96.70;;;;;;4815161;29;20885;-68
2021/01/14 06:59:25;;;;;;;20.60;13.88;;;7.10;96.70;;;;;;4829636;29;20050;-69
2021/01/14 07:02:11;;;;;;;18.92;13.10;;;7.10;96.70;;;;;;4829877;29;20390;-69
2021/01/14 07:04:52;;;;;;;17.67;13.73;;;7.10;96.70;;;;;;4827132;29;20136;-68
2021/01/14 07:07:30;;;;;;;21.08;14.00;;;7.10;96.70;;;;;;4833823;29;20042;-69
2021/01/14 07:10:05;;;;;;;22.45;14.25;;;7.10;96.70;;;;;;4844032;29;20054;-69
2021/01/14 07:12:34;;;;;;;18.33;13.95;;;7.10;96.70;;;;;;4830024;29;20577;-68
2021/01/14 07:15:06;;;;;;;18.13;13.43;;;7.10;96.70;;;;;;4829876;29;20081;-69
2021/01/14 07:17:36;;;;;;;20.38;15.45;;;7.20;96.70;;;;;;4828435;29;20454;-69
2021/01/14 07:20:07;;;;;;;19.45;14.52;;;7.20;96.70;;;;;;4829314;29;20057;-69
2021/01/14 07:22:41;;;;;;;22.20;15.48;;;7.20;96.70;;;;;;4843926;29;20057;-69
2021/01/14 07:25:12;;;;;;;20.70;14.25;;;7.20;96.70;;;;;;4829825;29;20122;-69
2021/01/14 07:27:41;;;;;;;20.73;14.60;;;7.20;96.70;;;;;;4845761;29;20045;-68
2021/01/14 07:30:10;;;;;;;20.00;13.60;;;7.20;96.70;;;;;;4825807;29;20083;-69
2021/01/14 07:32:54;;;;;;;19.33;14.20;;;7.20;96.70;;;;;;4829775;29;20135;-68
2021/01/14 07:35:37;;;;;;;21.40;14.48;;;7.20;96.70;;;;;;4827967;29;20485;-69
2021/01/14 07:38:06;;;;;;;17.17;14.18;;;7.30;96.70;;;;;;4819886;29;20050;-68
2021/01/14 07:40:35;;;;;;;20.67;14.95;;;7.30;96.70;;;;;;4832165;29;20044;-69
2021/01/14 07:43:04;;;;;;;20.02;14.52;;;7.30;96.70;;;;;;4843872;29;20050;-69
2021/01/14 07:45:33;;;;;;;21.83;14.88;;;7.30;96.70;;;;;;4845488;29;20912;-69
2021/01/14 07:48:16;;;;;;;22.10;16.05;;;7.40;96.70;;;;;;4829439;29;20620;-68
2021/01/14 07:50:53;;;;;;;20.48;15.38;;;7.40;96.70;;;;;;4836876;29;20065;-68
2021/01/14 07:53:21;;;;;;;20.67;15.18;;;7.50;96.70;;;;;;4846419;29;20415;-69
2021/01/14 07:55:49;;;;;;;27.42;16.45;;;7.50;96.70;;;;;;4835139;29;20417;-69
2021/01/14 07:58:21;;;;;;;21.23;15.50;;;7.50;96.70;;;;;;4834716;29;20415;-68
2021/01/14 08:01:05;;;;;;;25.15;17.50;;;7.60;96.70;;;;;;4834901;29;20050;-68
2021/01/14 08:03:34;;;;;;;24.33;15.77;;;7.70;96.70;;;;;;4832792;29;20054;-69
2021/01/14 08:06:17;;;;;;;28.70;18.88;;;7.70;96.70;;;;;;4831287;29;20133;-69
2021/01/14 08:08:57;;;;;;;24.05;14.63;;;7.70;96.70;;;;;;4832030;29;20446;-70
2021/01/14 08:11:25;;;;;;;27.00;16.55;;;7.80;96.70;;;;;;4833236;29;20046;-69
2021/01/14 08:14:10;;;;;;;21.98;16.27;;;7.80;96.70;;;;;;4833857;29;20081;-70
2021/01/14 08:16:41;;;;;;;22.42;15.43;;;7.80;96.70;;;;;;4830080;29;20050;-68
2021/01/14 08:19:11;;;;;;;22.65;15.93;;;7.80;96.70;;;;;;4826346;29;20053;-69
2021/01/14 08:21:39;;;;;;;31.65;21.40;;;7.80;96.70;;;;;;4832582;29;20042;-68
2021/01/14 08:24:33;;;;;;;27.15;18.00;;;7.80;96.70;;;;;;4833153;29;20042;-68
2021/01/14 08:27:02;;;;;;;23.92;17.05;;;7.80;96.70;;;;;;4846378;29;20050;-73
2021/01/14 08:29:33;;;;;;;26.92;17.70;;;7.80;96.70;;;;;;4833212;29;20034;-73
2021/01/14 08:32:01;;;;;;;24.63;17.02;;;7.90;96.70;;;;;;4834379;29;20042;-69
2021/01/14 08:34:29;;;;;;;25.60;16.23;;;7.90;96.70;;;;;;4834943;29;20038;-69
2021/01/14 08:36:57;;;;;;;24.15;16.38;;;7.90;96.70;;;;;;4833126;29;20391;-68
2021/01/14 08:39:25;;;;;;;24.90;15.98;;;7.90;96.70;;;;;;4832882;29;20137;-69
2021/01/14 08:41:54;;;;;;;21.88;15.77;;;7.90;96.70;;;;;;4831199;29;20649;-70
2021/01/14 08:44:31;;;;;;;21.30;16.75;;;8.00;96.70;;;;;;4848055;29;20148;-69
2021/01/14 08:46:58;;;;;;;25.63;16.08;;;8.10;96.70;;;;;;4832362;29;20057;-70
2021/01/14 08:49:37;;;;;;;24.80;17.05;;;8.10;96.70;;;;;;4831938;29;20049;-69
2021/01/14 08:52:08;;;;;;;25.13;17.45;;;8.10;96.70;;;;;;4829869;29;20046;-69
2021/01/14 08:54:43;;;;;;;20.92;16.48;;;8.10;96.70;;;;;;4845635;29;20056;-69
2021/01/14 08:57:10;;;;;;;23.73;16.00;;;8.20;96.70;;;;;;4832109;29;20069;-69
2021/01/14 08:59:40;;;;;;;22.48;15.38;;;8.20;96.70;;;;;;4828827;29;20382;-69
2021/01/14 09:02:08;;;;;;;22.30;15.45;;;8.30;96.70;;;;;;4835519;29;20045;-70
2021/01/14 09:04:35;;;;;;;45.78;26.55;;;8.30;96.70;;;;;;4845143;29;20042;-69
2021/01/14 09:07:03;;;;;;;30.75;20.80;;;8.20;96.70;;;;;;4848886;29;20081;-68
2021/01/14 09:09:30;;;;;;;23.70;16.75;;;8.20;96.70;;;;;;4835150;29;20593;-69
2021/01/14 09:11:58;;;;;;;25.05;16.38;;;8.20;96.70;;;;;;4833811;29;20424;-70
2021/01/14 09:14:26;;;;;;;24.27;16.95;;;8.20;96.70;;;;;;4831147;29;20038;-69
2021/01/14 09:16:53;;;;;;;21.70;15.90;;;8.30;96.70;;;;;;4828938;29;20366;-69
2021/01/14 09:19:24;;;;;;;20.58;15.48;;;8.30;96.70;;;;;;4844961;29;20056;-69
2021/01/14 09:21:51;;;;;;;25.40;17.05;;;8.40;96.70;;;;;;4830711;29;20061;-69
2021/01/14 09:24:19;;;;;;;18.40;14.52;;;8.40;96.70;;;;;;4827513;29;20057;-69
2021/01/14 09:26:49;;;;;;;22.27;15.80;;;8.50;96.70;;;;;;4833384;29;20120;-69
2021/01/14 09:29:21;;;;;;;22.10;15.57;;;8.50;96.70;;;;;;4832064;29;20715;-69
2021/01/14 09:31:48;;;;;;;20.52;16.35;;;8.50;96.70;;;;;;4833545;29;20134;-69
2021/01/14 09:34:15;;;;;;;18.05;14.38;;;8.50;96.70;;;;;;4830257;29;20508;-69
2021/01/14 09:36:43;;;;;;;23.83;16.17;;;8.50;96.70;;;;;;4845918;29;20137;-69
2021/01/14 09:39:15;;;;;;;20.67;15.88;;;8.60;96.70;;;;;;4830724;29;20073;-68
2021/01/14 09:41:42;;;;;;;25.90;17.60;;;8.60;96.70;;;;;;4837121;29;20042;-68
2021/01/14 09:44:13;;;;;;;24.15;17.65;;;8.60;96.70;;;;;;4834986;29;20074;-70
2021/01/14 09:46:43;;;;;;;23.20;16.48;;;8.60;96.70;;;;;;4840791;29;20477;-69
2021/01/14 09:49:11;;;;;;;22.73;16.63;;;8.60;96.70;;;;;;4835945;29;20038;-71
2021/01/14 09:51:40;;;;;;;20.02;16.08;;;8.60;96.70;;;;;;4850322;29;20548;-69
2021/01/14 09:54:09;;;;;;;20.92;16.13;;;8.70;96.70;;;;;;4836369;29;20506;-67
2021/01/14 09:56:41;;;;;;;21.42;15.70;;;8.80;96.70;;;;;;4852986;29;20129;-69
2021/01/14 09:59:12;;;;;;;20.80;14.55;;;8.80;96.70;;;;;;4852260;29;20041;-70
2021/01/14 10:01:48;;;;;;;18.98;15.07;;;9.00;96.70;;;;;;4837690;29;20052;-71
2021/01/14 10:04:18;;;;;;;26.55;15.82;;;9.00;96.70;;;;;;4833236;29;20532;-69
2021/01/14 10:06:54;;;;;;;19.55;15.40;;;9.10;96.70;;;;;;4839505;29;20069;-70
2021/01/14 10:09:21;;;;;;;22.42;16.13;;;9.20;96.70;;;;;;4836632;29;20450;-71
2021/01/14 10:11:50;;;;;;;17.48;15.35;;;9.40;96.70;;;;;;4833945;29;20453;-69
2021/01/14 10:14:19;;;;;;;21.83;16.33;;;9.60;96.70;;;;;;4843457;29;20042;-70
2021/01/14 10:16:48;;;;;;;21.88;15.65;;;9.70;96.70;;;;;;4831010;29;20050;-70
2021/01/14 10:19:18;;;;;;;23.50;16.00;;;9.80;96.70;;;;;;4832214;29;20124;-69
2021/01/14 10:21:47;;;;;;;24.77;14.20;;;10.00;96.70;;;;;;4829135;29;20042;-74
2021/01/14 10:24:20;;;;;;;22.40;13.75;;;10.10;96.70;;;;;;4832241;29;20069;-74
2021/01/14 10:26:47;;;;;;;18.40;13.23;;;10.20;96.70;;;;;;4828623;29;20046;-73
2021/01/14 10:29:30;;;;;;;17.17;13.15;;;10.40;96.70;;;;;;4830182;29;20122;-74
2021/01/14 10:32:03;;;;;;;16.40;12.82;;;10.50;96.70;;;;;;4828830;29;20167;-74
2021/01/14 10:34:40;;;;;;;21.05;13.88;;;10.60;96.70;;;;;;4829695;29;20094;-73
2021/01/14 10:37:19;;;;;;;21.00;15.05;;;10.70;96.70;;;;;;4846169;29;20466;-73
2021/01/14 10:39:47;;;;;;;21.50;15.10;;;10.80;96.70;;;;;;4848147;29;20383;-73
2021/01/14 10:42:27;;;;;;;22.88;14.77;;;11.00;96.70;;;;;;4832547;29;20045;-74
2021/01/14 10:44:55;;;;;;;21.08;13.95;;;11.00;96.70;;;;;;4844133;29;20468;-74
2021/01/14 10:47:23;;;;;;;17.40;13.07;;;11.10;96.70;;;;;;4831478;29;20496;-74
2021/01/14 10:49:51;;;;;;;19.48;13.18;;;11.10;96.70;;;;;;4830240;29;20058;-74
2021/01/14 10:52:18;;;;;;;23.42;13.32;;;11.10;96.70;;;;;;4845664;29;20038;-73
2021/01/14 10:54:58;;;;;;;21.83;15.23;;;11.20;96.70;;;;;;4829653;29;20073;-74
2021/01/14 10:57:49;;;;;;;22.30;12.30;;;11.40;96.70;;;;;;4844907;29;20050;-74
2021/01/14 11:00:18;;;;;;;22.67;13.73;;;11.40;96.70;;;;;;4828998;29;20132;-74
2021/01/14 11:02:47;;;;;;;20.60;12.32;;;11.40;96.70;;;;;;4826069;29;20049;-74
2021/01/14 11:05:15;;;;;;;18.55;12.60;;;11.40;96.70;;;;;;4829647;29;20064;-74
2021/01/14 11:07:43;;;;;;;18.70;12.57;;;11.50;96.70;;;;;;4832388;29;20489;-74
2021/01/14 11:10:11;;;;;;;16.58;10.75;;;11.50;96.70;;;;;;4844327;29;20052;-74
2021/01/14 11:13:01;;;;;;;15.57;10.77;;;11.60;96.70;;;;;;4826979;29;20584;-74
2021/01/14 11:15:29;;;;;;;15.60;10.07;;;11.60;96.70;;;;;;4833572;29;20137;-73
2021/01/14 11:18:00;;;;;;;14.93;10.90;;;11.60;96.70;;;;;;4830290;29;20049;-74
2021/01/14 11:20:28;;;;;;;16.00;10.25;;;11.70;96.70;;;;;;4827727;29;20091;-74
2021/01/14 11:22:56;;;;;;;15.00;9.32;;;11.70;96.70;;;;;;4818534;29;20046;-74
2021/01/14 11:25:23;;;;;;;17.20;9.50;;;11.80;96.70;;;;;;4828596;29;20052;-72
2021/01/14 11:27:52;;;;;;;14.60;9.20;;;11.90;96.70;;;;;;4831874;29;20454;-74
2021/01/14 11:30:20;;;;;;;13.35;9.20;;;12.00;96.70;;;;;;4826903;29;20058;-73
2021/01/14 11:32:48;;;;;;;15.07;8.73;;;12.00;96.70;;;;;;4828646;29;20109;-73
2021/01/14 11:35:17;;;;;;;13.75;9.10;;;12.10;96.70;;;;;;4828937;29;20132;-74
2021/01/14 11:37:44;;;;;;;14.35;9.75;;;12.10;96.70;;;;;;4832255;29;20049;-74
2021/01/14 11:40:12;;;;;;;13.48;8.30;;;12.20;96.70;;;;;;4831435;29;20053;-74
2021/01/14 11:42:40;;;;;;;13.93;7.35;;;12.20;96.70;;;;;;4829685;29;20504;-73
2021/01/14 11:45:08;;;;;;;12.45;6.97;;;12.30;96.70;;;;;;4844723;29;20065;-73
2021/01/14 11:47:35;;;;;;;10.55;7.40;;;12.30;96.70;;;;;;4828804;29;20049;-74
2021/01/14 11:50:05;;;;;;;9.68;7.25;;;12.50;96.70;;;;;;4833713;29;20504;-74
2021/01/14 11:52:33;;;;;;;18.35;9.38;;;12.50;96.70;;;;;;4831861;29;20046;-74
2021/01/14 11:55:00;;;;;;;14.65;8.95;;;12.60;96.70;;;;;;4829710;29;20079;-74
2021/01/14 11:57:28;;;;;;;16.05;10.00;;;12.50;96.70;;;;;;4845035;29;20561;-74
2021/01/14 11:59:56;;;;;;;19.40;10.90;;;12.50;96.70;;;;;;4821194;29;20460;-73
2021/01/14 12:02:23;;;;;;;16.63;10.68;;;12.40;96.70;;;;;;4838290;29;20070;-74
2021/01/14 12:04:51;;;;;;;17.88;10.43;;;12.40;96.70;;;;;;4830017;29;20545;-74
2021/01/14 12:07:18;;;;;;;12.18;8.63;;;12.40;96.70;;;;;;4828139;29;20058;-74
2021/01/14 12:09:46;;;;;;;14.95;9.77;;;12.40;96.70;;;;;;4839978;29;20062;-74
2021/01/14 12:12:14;;;;;;;15.68;10.88;;;12.40;96.70;;;;;;4828889;29;20114;-75
2021/01/14 12:14:41;;;;;;;16.33;11.05;;;12.30;96.70;;;;;;4831143;29;20049;-73
2021/01/14 12:17:08;;;;;;;15.10;9.73;;;12.30;96.70;;;;;;4828478;29;20066;-73
2021/01/14 12:19:36;;;;;;;15.13;10.25;;;12.40;96.70;;;;;;4830084;29;20053;-74
2021/01/14 12:22:05;;;;;;;13.48;7.60;;;12.50;96.70;;;;;;4829610;29;20504;-74
2021/01/14 12:24:33;;;;;;;16.40;8.68;;;12.60;96.70;;;;;;4827378;29;20054;-74
2021/01/14 12:27:01;;;;;;;12.75;8.05;;;12.70;96.70;;;;;;4828873;29;20050;-74
2021/01/14 12:29:29;;;;;;;16.05;8.75;;;12.70;96.70;;;;;;4830065;29;20057;-74
2021/01/14 12:31:56;;;;;;;14.70;6.53;;;12.80;96.70;;;;;;4828601;29;20045;-74
2021/01/14 12:34:27;;;;;;;15.30;6.65;;;12.90;96.70;;;;;;4845435;29;20054;-74
2021/01/14 12:36:54;;;;;;;12.57;6.32;;;13.00;96.70;;;;;;4832900;29;20084;-74
2021/01/14 12:39:22;;;;;;;12.27;4.38;;;13.00;96.70;;;;;;4833283;29;20056;-74
2021/01/14 12:41:49;;;;;;;10.38;4.10;;;13.30;96.70;;;;;;4833870;29;20144;-73
2021/01/14 12:44:18;;;;;;;8.20;3.05;;;13.40;96.70;;;;;;4832933;29;20046;-74
2021/01/14 12:46:47;;;;;;;7.53;2.95;;;13.50;96.70;;;;;;4847380;29;20110;-74
2021/01/14 12:49:16;;;;;;;5.32;2.53;;;13.70;96.70;;;;;;4835573;29;20049;-74